createdAt,value
2024-04-23T00:00:13.802Z,22.48
2024-04-23T00:03:32.490Z,21.03
2024-04-23T00:06:50.091Z,21.28
2024-04-23T00:10:08.243Z,23.58
2024-04-23T00:13:25.754Z,24.05
2024-04-23T00:16:43.306Z,22.13
2024-04-23T00:20:00.934Z,25.48
2024-04-23T00:23:19.080Z,25.20
2024-04-23T00:26:36.536Z,26.90
2024-04-23T00:29:53.976Z,22.03
2024-04-23T00:33:12.771Z,26.43
2024-04-23T00:36:30.476Z,25.08
2024-04-23T00:39:47.915Z,26.38
2024-04-23T00:43:05.465Z,24.05
2024-04-23T00:46:23.439Z,23.90
2024-04-23T00:49:41.334Z,26.55
2024-04-23T00:52:59.416Z,26.35
2024-04-23T00:56:19.308Z,26.58
2024-04-23T00:59:36.953Z,21.60
2024-04-23T01:02:54.452Z,23.50
2024-04-23T01:06:12.534Z,22.65
2024-04-23T01:09:30.517Z,25.75
2024-04-23T01:12:47.903Z,20.05
2024-04-23T01:16:05.840Z,22.18
2024-04-23T01:19:29.408Z,20.35
2024-04-23T01:22:53.472Z,19.93
2024-04-23T01:26:14.771Z,16.40
2024-04-23T01:29:33.054Z,21.93
2024-04-23T01:32:52.207Z,17.10
2024-04-23T01:36:10.380Z,18.08
2024-04-23T01:39:28.077Z,16.75
2024-04-23T01:42:46.386Z,17.35
2024-04-23T01:46:04.552Z,17.68
2024-04-23T01:49:22.167Z,18.70
2024-04-23T01:52:40.111Z,16.55
2024-04-23T01:55:57.875Z,17.65
2024-04-23T01:59:15.701Z,18.28
2024-04-23T02:02:33.746Z,17.55
2024-04-23T02:05:51.503Z,16.20
2024-04-23T02:09:09.341Z,17.48
2024-04-23T02:12:29.493Z,17.75
2024-04-23T02:15:46.969Z,17.58
2024-04-23T02:19:04.136Z,20.18
2024-04-23T02:22:21.999Z,17.98
2024-04-23T02:25:39.962Z,17.20
2024-04-23T02:28:57.283Z,17.35
2024-04-23T02:32:15.306Z,23.13
2024-04-23T02:35:32.935Z,18.70
2024-04-23T02:38:50.462Z,17.40
2024-04-23T02:42:08.768Z,18.03
2024-04-23T02:45:29.189Z,18.33
2024-04-23T02:48:45.175Z,20.13
2024-04-23T02:52:05.563Z,17.30
2024-04-23T02:55:23.129Z,17.73
2024-04-23T02:58:40.623Z,17.23
2024-04-23T03:02:03.472Z,18.08
2024-04-23T03:05:21.081Z,15.63
2024-04-23T03:08:38.602Z,18.10
2024-04-23T03:12:02.831Z,17.18
2024-04-23T03:15:20.487Z,19.53
2024-04-23T03:18:38.016Z,19.53
2024-04-23T03:22:03.490Z,16.35
2024-04-23T03:25:20.834Z,18.03
2024-04-23T03:28:38.375Z,16.10
2024-04-23T03:31:58.048Z,16.85
2024-04-23T03:35:16.246Z,13.13
2024-04-23T03:38:33.721Z,19.58
2024-04-23T03:42:00.510Z,14.13
2024-04-23T03:45:18.099Z,18.78
2024-04-23T03:48:35.661Z,14.70
2024-04-23T03:51:53.230Z,16.13
2024-04-23T03:55:10.948Z,16.00
2024-04-23T03:58:28.512Z,15.28
2024-04-23T04:01:46.183Z,15.80
2024-04-23T04:05:22.554Z,17.75
2024-04-23T04:08:40.677Z,15.08
2024-04-23T04:11:58.334Z,14.80
2024-04-23T04:15:16.527Z,15.50
2024-04-23T04:18:34.287Z,17.98
2024-04-23T04:21:51.884Z,20.25
2024-04-23T04:25:09.296Z,17.70
2024-04-23T04:28:27.014Z,17.23
2024-04-23T04:31:44.605Z,15.98
2024-04-23T04:35:02.230Z,19.20
2024-04-23T04:38:19.747Z,18.50
2024-04-23T04:41:37.194Z,21.35
2024-04-23T04:44:54.601Z,19.60
2024-04-23T04:48:12.843Z,21.25
2024-04-23T04:51:30.376Z,19.03
2024-04-23T04:54:47.731Z,19.75
2024-04-23T04:58:05.585Z,20.45
2024-04-23T05:01:22.990Z,18.35
2024-04-23T05:04:40.784Z,15.45
2024-04-23T05:07:58.387Z,18.20
2024-04-23T05:11:16.262Z,19.98
2024-04-23T05:14:33.804Z,18.05
2024-04-23T05:17:51.390Z,18.30
2024-04-23T05:21:09.095Z,23.60
2024-04-23T05:24:26.388Z,56.40
2024-04-23T05:27:43.837Z,26.43
2024-04-23T05:31:11.208Z,19.85
2024-04-23T05:34:28.774Z,19.93
2024-04-23T05:37:46.375Z,20.18
2024-04-23T05:41:04.212Z,21.60
2024-04-23T05:44:23.470Z,23.23
2024-04-23T05:47:54.122Z,23.63
2024-04-23T05:52:15.864Z,24.10
2024-04-23T05:55:49.083Z,26.73
2024-04-23T05:59:05.821Z,29.25
2024-04-23T06:02:23.771Z,21.63
2024-04-23T06:05:41.851Z,24.58
2024-04-23T06:08:59.655Z,24.38
2024-04-23T06:12:18.037Z,25.68
2024-04-23T06:15:36.072Z,31.00
2024-04-23T06:18:53.954Z,21.70
2024-04-23T06:22:11.870Z,18.30
2024-04-23T06:25:30.025Z,21.50
2024-04-23T06:28:47.701Z,16.85
2024-04-23T06:32:05.400Z,16.25
2024-04-23T06:35:23.262Z,19.98
2024-04-23T06:38:40.852Z,45.80
2024-04-23T06:41:58.684Z,31.25
2024-04-23T16:47:52.775Z,8.90
2024-04-23T16:51:10.568Z,16.35
2024-04-23T16:54:28.570Z,11.90
2024-04-23T16:57:46.164Z,12.75
2024-04-23T17:01:03.437Z,12.63
2024-04-23T17:04:20.885Z,9.50
2024-04-23T17:07:38.702Z,13.25
2024-04-23T17:10:56.151Z,15.00
2024-04-23T17:14:13.667Z,12.88
2024-04-23T17:17:31.233Z,14.80
2024-04-23T17:20:54.033Z,9.98
2024-04-23T17:24:12.448Z,14.60
2024-04-23T17:27:29.676Z,13.23
2024-04-23T17:30:50.105Z,12.28
2024-04-23T17:34:08.263Z,11.83
2024-04-23T17:37:25.437Z,12.48
2024-04-23T17:40:46.846Z,11.85
2024-04-23T17:44:04.678Z,14.50
2024-04-23T17:47:22.165Z,17.65
2024-04-23T17:50:39.353Z,55.65
2024-04-23T17:54:03.003Z,14.20
2024-04-23T17:57:20.593Z,12.43
2024-04-23T18:03:53.589Z,15.28
2024-04-23T18:07:10.800Z,15.08
2024-04-23T18:10:28.037Z,12.80
2024-04-23T18:13:45.490Z,14.35
2024-04-23T18:17:04.406Z,16.80
2024-04-23T18:20:21.976Z,17.33
2024-04-23T18:23:41.750Z,18.28
2024-04-23T18:26:58.950Z,17.68
2024-04-23T18:30:18.230Z,17.35
2024-04-23T18:33:36.290Z,17.23
2024-04-23T18:36:53.729Z,20.28
2024-04-23T18:40:11.803Z,16.88
2024-04-23T18:43:28.874Z,16.83
2024-04-23T18:50:01.231Z,21.50
2024-04-23T18:53:18.708Z,19.53
2024-04-23T18:56:36.536Z,24.18
2024-04-23T18:59:53.776Z,22.23
2024-04-23T19:03:10.931Z,20.33
2024-04-23T19:06:28.587Z,21.13
2024-04-23T19:09:47.931Z,25.25
2024-04-23T19:13:05.159Z,23.25
2024-04-23T19:16:22.739Z,22.38
2024-04-23T19:19:39.855Z,24.33
2024-04-23T19:22:56.760Z,25.15
2024-04-23T19:26:14.115Z,23.40
2024-04-23T19:29:31.317Z,25.93
2024-04-23T19:32:49.184Z,26.25
2024-04-23T19:36:08.474Z,24.53
2024-04-23T19:39:26.207Z,24.35
2024-04-23T19:42:43.788Z,26.78
2024-04-23T19:46:01.126Z,25.85
2024-04-23T19:49:18.304Z,28.95
2024-04-23T19:52:35.451Z,33.65
2024-04-23T19:55:54.463Z,24.98
2024-04-23T19:59:12.518Z,31.45
2024-04-23T20:02:29.882Z,35.75
2024-04-23T20:05:47.104Z,34.58
2024-04-23T20:09:04.318Z,43.30
2024-04-23T20:12:21.464Z,45.28
2024-04-23T20:15:38.712Z,36.18
2024-04-23T20:18:56.214Z,40.83
2024-04-23T20:22:13.617Z,36.45
2024-04-23T20:25:30.931Z,40.50
2024-04-23T20:28:48.149Z,41.28
2024-04-23T20:32:05.631Z,44.08
2024-04-23T20:35:22.848Z,38.78
2024-04-23T20:38:40.062Z,37.30
2024-04-23T20:41:57.235Z,38.53
2024-04-23T20:45:16.102Z,41.25
2024-04-23T20:48:33.472Z,37.23
2024-04-23T20:51:50.915Z,41.58
2024-04-23T20:55:08.160Z,34.35
2024-04-23T20:58:25.869Z,40.55
2024-04-23T21:01:43.148Z,39.35
2024-04-23T21:05:00.578Z,40.28
2024-04-23T21:08:18.611Z,40.10
2024-04-23T21:11:37.461Z,39.65
2024-04-23T21:14:54.919Z,39.50
2024-04-23T21:18:12.629Z,35.10
2024-04-23T21:21:31.244Z,41.88
2024-04-23T21:24:48.472Z,37.88
2024-04-23T21:28:05.605Z,36.35
2024-04-23T21:31:22.993Z,39.80
2024-04-23T21:34:40.668Z,40.43
2024-04-23T21:37:57.898Z,36.83
2024-04-23T21:41:17.322Z,36.83
2024-04-23T21:44:34.689Z,42.95
2024-04-23T21:47:52.211Z,40.83
2024-04-23T21:51:16.477Z,40.60
2024-04-23T21:54:33.661Z,42.53
2024-04-23T21:57:51.888Z,42.10
2024-04-23T22:01:10.823Z,41.85
2024-04-23T22:04:28.575Z,40.35
2024-04-23T22:07:50.636Z,41.43
2024-04-23T22:11:07.995Z,45.58
2024-04-23T22:14:25.904Z,43.95
2024-04-23T22:17:44.162Z,46.93
2024-04-23T22:21:01.525Z,47.93
2024-04-23T22:24:19.234Z,50.33
2024-04-23T22:27:36.328Z,48.90
2024-04-23T22:30:53.677Z,48.95
2024-04-23T22:34:12.046Z,49.35
2024-04-23T22:37:29.360Z,49.03
2024-04-23T22:40:46.508Z,50.38
2024-04-23T22:44:03.956Z,46.18
2024-04-23T22:47:23.092Z,43.65
2024-04-23T22:50:40.330Z,49.18
2024-04-23T22:53:57.528Z,44.73
2024-04-23T22:57:15.049Z,41.50
2024-04-23T23:00:32.411Z,39.90
2024-04-23T23:03:49.431Z,43.25
2024-04-23T23:10:23.970Z,36.35
2024-04-23T23:13:41.115Z,33.48
2024-04-23T23:16:58.235Z,38.45
2024-04-23T23:20:17.113Z,41.78
2024-04-23T23:23:34.227Z,35.20
2024-04-23T23:30:05.907Z,33.48
2024-04-23T23:33:23.063Z,40.98
2024-04-23T23:36:40.383Z,36.83
2024-04-23T23:39:57.537Z,36.80
2024-04-23T23:43:14.743Z,34.88
2024-04-23T23:46:31.495Z,36.93
2024-04-23T23:49:48.594Z,37.60
2024-04-23T23:53:05.902Z,39.10
2024-04-23T23:56:23.119Z,36.15
2024-04-23T23:59:40.417Z,36.55
